sensor_id;sensor_type;location;lat;lon;timestamp;P1;durP1;ratioP1;P2;durP2;ratioP2
60308;SDS011;50313;52.894;6.492;2022-08-19T00:01:41;1.17;;;0.90;;
60308;SDS011;50313;52.894;6.492;2022-08-19T00:04:08;1.35;;;1.00;;
60308;SDS011;50313;52.894;6.492;2022-08-19T00:06:38;4.53;;;1.48;;
60308;SDS011;50313;52.894;6.492;2022-08-19T00:09:05;2.28;;;1.52;;
60308;SDS011;50313;52.894;6.492;2022-08-19T00:11:33;1.50;;;1.40;;
60308;SDS011;50313;52.894;6.492;2022-08-19T00:14:00;10.25;;;2.17;;
60308;SDS011;50313;52.894;6.492;2022-08-19T00:16:26;1.05;;;1.05;;
60308;SDS011;50313;52.894;6.492;2022-08-19T00:18:55;11.73;;;1.42;;
60308;SDS011;50313;52.894;6.492;2022-08-19T00:21:22;2.53;;;1.73;;
60308;SDS011;50313;52.894;6.492;2022-08-19T00:23:48;1.75;;;1.58;;
60308;SDS011;50313;52.894;6.492;2022-08-19T00:26:14;1.85;;;1.33;;
60308;SDS011;50313;52.894;6.492;2022-08-19T00:28:39;3.40;;;1.73;;
60308;SDS011;50313;52.894;6.492;2022-08-19T00:31:06;0.75;;;0.75;;
60308;SDS011;50313;52.894;6.492;2022-08-19T00:33:33;1.10;;;1.00;;
60308;SDS011;50313;52.894;6.492;2022-08-19T00:36:00;0.65;;;0.65;;
60308;SDS011;50313;52.894;6.492;2022-08-19T00:38:26;1.67;;;1.52;;
60308;SDS011;50313;52.894;6.492;2022-08-19T00:40:52;1.83;;;1.33;;
60308;SDS011;50313;52.894;6.492;2022-08-19T00:43:20;1.17;;;0.93;;
60308;SDS011;50313;52.894;6.492;2022-08-19T00:45:49;3.78;;;1.88;;
60308;SDS011;50313;52.894;6.492;2022-08-19T00:48:16;2.25;;;1.50;;
60308;SDS011;50313;52.894;6.492;2022-08-19T00:50:43;3.78;;;1.95;;
60308;SDS011;50313;52.894;6.492;2022-08-19T00:53:13;1.20;;;1.10;;
60308;SDS011;50313;52.894;6.492;2022-08-19T00:55:43;0.93;;;0.93;;
60308;SDS011;50313;52.894;6.492;2022-08-19T00:58:12;3.83;;;1.25;;
60308;SDS011;50313;52.894;6.492;2022-08-19T01:00:42;1.35;;;1.17;;
60308;SDS011;50313;52.894;6.492;2022-08-19T01:03:10;2.28;;;1.13;;
60308;SDS011;50313;52.894;6.492;2022-08-19T01:05:38;2.20;;;1.13;;
60308;SDS011;50313;52.894;6.492;2022-08-19T01:08:06;1.42;;;1.33;;
60308;SDS011;50313;52.894;6.492;2022-08-19T01:10:37;3.05;;;2.28;;
60308;SDS011;50313;52.894;6.492;2022-08-19T01:13:07;1.00;;;0.85;;
60308;SDS011;50313;52.894;6.492;2022-08-19T01:15:40;4.30;;;1.88;;
60308;SDS011;50313;52.894;6.492;2022-08-19T01:18:10;0.60;;;0.60;;
60308;SDS011;50313;52.894;6.492;2022-08-19T01:20:38;1.38;;;1.20;;
60308;SDS011;50313;52.894;6.492;2022-08-19T01:23:04;4.00;;;2.00;;
60308;SDS011;50313;52.894;6.492;2022-08-19T01:25:51;1.10;;;1.05;;
60308;SDS011;50313;52.894;6.492;2022-08-19T01:28:23;1.90;;;1.23;;
60308;SDS011;50313;52.894;6.492;2022-08-19T01:30:51;3.05;;;1.38;;
60308;SDS011;50313;52.894;6.492;2022-08-19T01:33:19;1.75;;;1.08;;
60308;SDS011;50313;52.894;6.492;2022-08-19T01:35:46;2.97;;;1.80;;
60308;SDS011;50313;52.894;6.492;2022-08-19T01:38:20;1.95;;;1.15;;
60308;SDS011;50313;52.894;6.492;2022-08-19T01:40:48;0.82;;;0.82;;
60308;SDS011;50313;52.894;6.492;2022-08-19T01:43:14;1.17;;;1.13;;
60308;SDS011;50313;52.894;6.492;2022-08-19T01:45:40;3.28;;;0.93;;
60308;SDS011;50313;52.894;6.492;2022-08-19T01:48:07;1.52;;;1.40;;
60308;SDS011;50313;52.894;6.492;2022-08-19T01:50:33;0.95;;;0.65;;
60308;SDS011;50313;52.894;6.492;2022-08-19T01:53:00;1.90;;;0.93;;
60308;SDS011;50313;52.894;6.492;2022-08-19T01:55:29;2.30;;;1.45;;
60308;SDS011;50313;52.894;6.492;2022-08-19T01:57:55;2.30;;;1.25;;
60308;SDS011;50313;52.894;6.492;2022-08-19T02:00:24;3.00;;;2.20;;
60308;SDS011;50313;52.894;6.492;2022-08-19T02:02:55;3.03;;;1.60;;
60308;SDS011;50313;52.894;6.492;2022-08-19T02:05:21;0.52;;;0.52;;
60308;SDS011;50313;52.894;6.492;2022-08-19T02:07:47;1.80;;;1.40;;
60308;SDS011;50313;52.894;6.492;2022-08-19T02:10:15;2.38;;;1.58;;
60308;SDS011;50313;52.894;6.492;2022-08-19T02:12:44;1.70;;;1.10;;
60308;SDS011;50313;52.894;6.492;2022-08-19T02:15:10;1.17;;;1.08;;
60308;SDS011;50313;52.894;6.492;2022-08-19T02:17:36;1.55;;;1.45;;
60308;SDS011;50313;52.894;6.492;2022-08-19T02:20:02;1.58;;;0.85;;
60308;SDS011;50313;52.894;6.492;2022-08-19T02:22:28;0.80;;;0.43;;
60308;SDS011;50313;52.894;6.492;2022-08-19T02:24:54;3.08;;;1.52;;
60308;SDS011;50313;52.894;6.492;2022-08-19T02:27:21;1.10;;;1.00;;
60308;SDS011;50313;52.894;6.492;2022-08-19T02:29:48;1.58;;;1.48;;
60308;SDS011;50313;52.894;6.492;2022-08-19T02:32:16;2.65;;;2.38;;
60308;SDS011;50313;52.894;6.492;2022-08-19T02:34:43;1.83;;;1.73;;
60308;SDS011;50313;52.894;6.492;2022-08-19T02:37:09;1.35;;;1.17;;
60308;SDS011;50313;52.894;6.492;2022-08-19T02:39:54;1.55;;;0.90;;
60308;SDS011;50313;52.894;6.492;2022-08-19T02:42:20;8.63;;;2.10;;
60308;SDS011;50313;52.894;6.492;2022-08-19T02:44:46;0.77;;;0.77;;
60308;SDS011;50313;52.894;6.492;2022-08-19T02:47:11;1.95;;;1.35;;
60308;SDS011;50313;52.894;6.492;2022-08-19T02:49:39;1.48;;;1.15;;
60308;SDS011;50313;52.894;6.492;2022-08-19T02:52:05;0.60;;;0.60;;
60308;SDS011;50313;52.894;6.492;2022-08-19T02:54:30;0.77;;;0.75;;
60308;SDS011;50313;52.894;6.492;2022-08-19T02:56:56;1.98;;;1.80;;
60308;SDS011;50313;52.894;6.492;2022-08-19T02:59:22;0.68;;;0.68;;
60308;SDS011;50313;52.894;6.492;2022-08-19T03:01:47;1.58;;;0.98;;
60308;SDS011;50313;52.894;6.492;2022-08-19T03:04:14;4.43;;;1.25;;
60308;SDS011;50313;52.894;6.492;2022-08-19T03:06:42;1.95;;;1.10;;
60308;SDS011;50313;52.894;6.492;2022-08-19T03:09:10;2.90;;;1.98;;
60308;SDS011;50313;52.894;6.492;2022-08-19T03:11:37;1.33;;;1.23;;
60308;SDS011;50313;52.894;6.492;2022-08-19T03:14:03;2.00;;;1.52;;
60308;SDS011;50313;52.894;6.492;2022-08-19T03:16:32;0.90;;;0.85;;
60308;SDS011;50313;52.894;6.492;2022-08-19T03:19:00;1.50;;;1.15;;
60308;SDS011;50313;52.894;6.492;2022-08-19T03:21:27;1.85;;;1.02;;
60308;SDS011;50313;52.894;6.492;2022-08-19T03:23:59;1.63;;;1.38;;
60308;SDS011;50313;52.894;6.492;2022-08-19T03:26:26;2.47;;;2.28;;
60308;SDS011;50313;52.894;6.492;2022-08-19T03:28:53;1.77;;;1.13;;
60308;SDS011;50313;52.894;6.492;2022-08-19T03:31:19;1.33;;;1.02;;
60308;SDS011;50313;52.894;6.492;2022-08-19T03:33:50;1.25;;;0.98;;
60308;SDS011;50313;52.894;6.492;2022-08-19T03:36:20;7.40;;;1.35;;
60308;SDS011;50313;52.894;6.492;2022-08-19T03:38:49;1.75;;;0.88;;
60308;SDS011;50313;52.894;6.492;2022-08-19T03:41:25;2.67;;;1.73;;
60308;SDS011;50313;52.894;6.492;2022-08-19T03:44:01;2.22;;;1.23;;
60308;SDS011;50313;52.894;6.492;2022-08-19T03:46:28;0.77;;;0.77;;
60308;SDS011;50313;52.894;6.492;2022-08-19T03:48:57;1.13;;;1.05;;
60308;SDS011;50313;52.894;6.492;2022-08-19T03:51:29;1.13;;;1.13;;
60308;SDS011;50313;52.894;6.492;2022-08-19T03:53:56;1.98;;;1.80;;
60308;SDS011;50313;52.894;6.492;2022-08-19T03:56:24;1.38;;;1.17;;
60308;SDS011;50313;52.894;6.492;2022-08-19T03:58:51;3.75;;;2.22;;
60308;SDS011;50313;52.894;6.492;2022-08-19T04:01:18;2.70;;;1.58;;
60308;SDS011;50313;52.894;6.492;2022-08-19T04:03:45;1.02;;;0.98;;
60308;SDS011;50313;52.894;6.492;2022-08-19T04:06:16;0.90;;;0.90;;
60308;SDS011;50313;52.894;6.492;2022-08-19T04:08:45;1.55;;;1.45;;
60308;SDS011;50313;52.894;6.492;2022-08-19T04:11:12;3.42;;;1.42;;
60308;SDS011;50313;52.894;6.492;2022-08-19T04:13:41;1.60;;;1.17;;
60308;SDS011;50313;52.894;6.492;2022-08-19T04:16:09;3.72;;;1.27;;
60308;SDS011;50313;52.894;6.492;2022-08-19T04:18:36;0.70;;;0.70;;
60308;SDS011;50313;52.894;6.492;2022-08-19T04:21:03;1.10;;;0.52;;
60308;SDS011;50313;52.894;6.492;2022-08-19T04:23:30;1.02;;;1.00;;
60308;SDS011;50313;52.894;6.492;2022-08-19T04:25:56;0.68;;;0.43;;
60308;SDS011;50313;52.894;6.492;2022-08-19T04:28:23;2.78;;;1.70;;
60308;SDS011;50313;52.894;6.492;2022-08-19T04:30:50;1.65;;;1.38;;
60308;SDS011;50313;52.894;6.492;2022-08-19T04:33:19;0.75;;;0.75;;
60308;SDS011;50313;52.894;6.492;2022-08-19T04:35:47;1.70;;;1.60;;
60308;SDS011;50313;52.894;6.492;2022-08-19T04:38:15;0.52;;;0.52;;
60308;SDS011;50313;52.894;6.492;2022-08-19T04:40:42;4.97;;;1.45;;
60308;SDS011;50313;52.894;6.492;2022-08-19T04:43:29;0.52;;;0.52;;
60308;SDS011;50313;52.894;6.492;2022-08-19T04:45:55;0.93;;;0.90;;
60308;SDS011;50313;52.894;6.492;2022-08-19T04:48:21;0.52;;;0.52;;
60308;SDS011;50313;52.894;6.492;2022-08-19T04:50:55;1.77;;;1.38;;
60308;SDS011;50313;52.894;6.492;2022-08-19T04:53:29;0.95;;;0.95;;
60308;SDS011;50313;52.894;6.492;2022-08-19T04:55:57;1.17;;;1.10;;
60308;SDS011;50313;52.894;6.492;2022-08-19T04:58:27;3.88;;;1.10;;
60308;SDS011;50313;52.894;6.492;2022-08-19T05:00:53;2.35;;;1.05;;
60308;SDS011;50313;52.894;6.492;2022-08-19T05:03:19;1.88;;;1.52;;
60308;SDS011;50313;52.894;6.492;2022-08-19T05:05:46;0.98;;;0.57;;
60308;SDS011;50313;52.894;6.492;2022-08-19T05:08:15;0.95;;;0.95;;
60308;SDS011;50313;52.894;6.492;2022-08-19T05:10:45;1.92;;;1.10;;
60308;SDS011;50313;52.894;6.492;2022-08-19T05:13:12;3.67;;;1.40;;
60308;SDS011;50313;52.894;6.492;2022-08-19T05:15:39;1.65;;;1.20;;
60308;SDS011;50313;52.894;6.492;2022-08-19T05:18:05;1.42;;;1.05;;
60308;SDS011;50313;52.894;6.492;2022-08-19T05:20:50;0.98;;;0.60;;
60308;SDS011;50313;52.894;6.492;2022-08-19T05:23:34;1.30;;;0.80;;
60308;SDS011;50313;52.894;6.492;2022-08-19T05:26:00;1.50;;;1.40;;
60308;SDS011;50313;52.894;6.492;2022-08-19T05:28:26;2.03;;;1.45;;
60308;SDS011;50313;52.894;6.492;2022-08-19T05:30:52;1.77;;;1.40;;
60308;SDS011;50313;52.894;6.492;2022-08-19T05:33:20;1.35;;;1.25;;
60308;SDS011;50313;52.894;6.492;2022-08-19T05:35:47;12.18;;;2.10;;
60308;SDS011;50313;52.894;6.492;2022-08-19T05:38:14;3.75;;;1.67;;
60308;SDS011;50313;52.894;6.492;2022-08-19T05:40:41;2.67;;;2.00;;
60308;SDS011;50313;52.894;6.492;2022-08-19T05:43:11;4.55;;;2.95;;
60308;SDS011;50313;52.894;6.492;2022-08-19T05:45:40;2.80;;;1.58;;
60308;SDS011;50313;52.894;6.492;2022-08-19T05:48:07;7.03;;;2.20;;
60308;SDS011;50313;52.894;6.492;2022-08-19T05:50:36;5.85;;;2.85;;
60308;SDS011;50313;52.894;6.492;2022-08-19T05:53:03;8.60;;;4.05;;
60308;SDS011;50313;52.894;6.492;2022-08-19T05:55:29;3.55;;;2.67;;
60308;SDS011;50313;52.894;6.492;2022-08-19T05:57:55;3.85;;;2.30;;
60308;SDS011;50313;52.894;6.492;2022-08-19T06:00:21;4.15;;;2.55;;
60308;SDS011;50313;52.894;6.492;2022-08-19T06:02:48;7.20;;;3.05;;
60308;SDS011;50313;52.894;6.492;2022-08-19T06:05:14;8.75;;;2.60;;
60308;SDS011;50313;52.894;6.492;2022-08-19T06:07:39;7.45;;;4.07;;
60308;SDS011;50313;52.894;6.492;2022-08-19T06:10:06;4.32;;;3.83;;
60308;SDS011;50313;52.894;6.492;2022-08-19T06:12:34;19.67;;;3.70;;
60308;SDS011;50313;52.894;6.492;2022-08-19T06:15:10;4.72;;;2.47;;
60308;SDS011;50313;52.894;6.492;2022-08-19T06:17:38;4.43;;;2.45;;
60308;SDS011;50313;52.894;6.492;2022-08-19T06:20:05;3.95;;;2.85;;
60308;SDS011;50313;52.894;6.492;2022-08-19T06:22:38;3.42;;;2.70;;
60308;SDS011;50313;52.894;6.492;2022-08-19T06:25:07;4.90;;;2.85;;
60308;SDS011;50313;52.894;6.492;2022-08-19T06:27:34;1.88;;;1.77;;
60308;SDS011;50313;52.894;6.492;2022-08-19T06:30:01;3.22;;;2.63;;
60308;SDS011;50313;52.894;6.492;2022-08-19T06:32:28;5.10;;;4.10;;
60308;SDS011;50313;52.894;6.492;2022-08-19T06:34:54;2.42;;;2.22;;
60308;SDS011;50313;52.894;6.492;2022-08-19T06:37:20;2.80;;;2.10;;
60308;SDS011;50313;52.894;6.492;2022-08-19T06:39:46;4.18;;;2.88;;
60308;SDS011;50313;52.894;6.492;2022-08-19T06:42:12;7.82;;;4.68;;
60308;SDS011;50313;52.894;6.492;2022-08-19T06:44:42;4.15;;;2.30;;
60308;SDS011;50313;52.894;6.492;2022-08-19T06:47:10;6.78;;;4.28;;
60308;SDS011;50313;52.894;6.492;2022-08-19T06:49:37;6.65;;;3.88;;
60308;SDS011;50313;52.894;6.492;2022-08-19T06:52:03;4.90;;;3.88;;
60308;SDS011;50313;52.894;6.492;2022-08-19T06:54:30;6.72;;;4.50;;
60308;SDS011;50313;52.894;6.492;2022-08-19T06:56:57;9.00;;;3.80;;
60308;SDS011;50313;52.894;6.492;2022-08-19T06:59:27;6.20;;;2.72;;
60308;SDS011;50313;52.894;6.492;2022-08-19T07:01:54;11.88;;;4.78;;
60308;SDS011;50313;52.894;6.492;2022-08-19T07:04:22;4.07;;;2.85;;
60308;SDS011;50313;52.894;6.492;2022-08-19T07:06:56;6.13;;;3.75;;
60308;SDS011;50313;52.894;6.492;2022-08-19T07:09:26;2.55;;;2.35;;
60308;SDS011;50313;52.894;6.492;2022-08-19T07:11:52;4.40;;;2.35;;
60308;SDS011;50313;52.894;6.492;2022-08-19T07:14:20;12.35;;;2.88;;
60308;SDS011;50313;52.894;6.492;2022-08-19T07:16:50;5.82;;;3.78;;
60308;SDS011;50313;52.894;6.492;2022-08-19T07:19:17;3.90;;;2.83;;
60308;SDS011;50313;52.894;6.492;2022-08-19T07:21:44;5.35;;;3.35;;
60308;SDS011;50313;52.894;6.492;2022-08-19T07:24:11;5.32;;;4.25;;
60308;SDS011;50313;52.894;6.492;2022-08-19T07:26:38;5.65;;;3.13;;
60308;SDS011;50313;52.894;6.492;2022-08-19T07:29:06;9.40;;;4.22;;
60308;SDS011;50313;52.894;6.492;2022-08-19T07:31:33;6.93;;;3.83;;
60308;SDS011;50313;52.894;6.492;2022-08-19T07:34:02;7.93;;;3.88;;
60308;SDS011;50313;52.894;6.492;2022-08-19T07:36:31;6.53;;;3.13;;
60308;SDS011;50313;52.894;6.492;2022-08-19T07:38:59;6.00;;;3.60;;
60308;SDS011;50313;52.894;6.492;2022-08-19T07:41:27;21.30;;;4.82;;
60308;SDS011;50313;52.894;6.492;2022-08-19T07:43:56;11.65;;;5.03;;
60308;SDS011;50313;52.894;6.492;2022-08-19T07:46:23;5.05;;;3.95;;
60308;SDS011;50313;52.894;6.492;2022-08-19T07:48:49;13.13;;;4.57;;
60308;SDS011;50313;52.894;6.492;2022-08-19T07:51:18;8.23;;;5.03;;
60308;SDS011;50313;52.894;6.492;2022-08-19T07:53:45;8.68;;;4.45;;
60308;SDS011;50313;52.894;6.492;2022-08-19T07:56:13;8.23;;;4.07;;
60308;SDS011;50313;52.894;6.492;2022-08-19T07:58:41;3.60;;;3.00;;
60308;SDS011;50313;52.894;6.492;2022-08-19T08:01:10;7.68;;;4.25;;
60308;SDS011;50313;52.894;6.492;2022-08-19T08:03:38;9.50;;;4.78;;
60308;SDS011;50313;52.894;6.492;2022-08-19T08:06:22;4.47;;;3.30;;
60308;SDS011;50313;52.894;6.492;2022-08-19T08:09:07;5.18;;;3.42;;
60308;SDS011;50313;52.894;6.492;2022-08-19T08:11:38;7.55;;;3.47;;
60308;SDS011;50313;52.894;6.492;2022-08-19T08:14:14;7.22;;;4.18;;
60308;SDS011;50313;52.894;6.492;2022-08-19T08:16:42;6.55;;;3.67;;
60308;SDS011;50313;52.894;6.492;2022-08-19T08:19:09;4.72;;;3.25;;
60308;SDS011;50313;52.894;6.492;2022-08-19T08:21:35;8.75;;;3.95;;
60308;SDS011;50313;52.894;6.492;2022-08-19T08:24:00;6.93;;;4.13;;
60308;SDS011;50313;52.894;6.492;2022-08-19T08:26:26;11.55;;;4.45;;
60308;SDS011;50313;52.894;6.492;2022-08-19T08:28:52;9.25;;;4.53;;
60308;SDS011;50313;52.894;6.492;2022-08-19T08:31:18;13.98;;;5.00;;
60308;SDS011;50313;52.894;6.492;2022-08-19T08:33:44;7.25;;;4.45;;
60308;SDS011;50313;52.894;6.492;2022-08-19T08:36:11;7.40;;;3.78;;
60308;SDS011;50313;52.894;6.492;2022-08-19T08:38:39;10.20;;;5.38;;
60308;SDS011;50313;52.894;6.492;2022-08-19T08:41:17;10.55;;;5.10;;
60308;SDS011;50313;52.894;6.492;2022-08-19T08:43:48;14.05;;;4.97;;
60308;SDS011;50313;52.894;6.492;2022-08-19T08:46:36;22.00;;;5.53;;
60308;SDS011;50313;52.894;6.492;2022-08-19T08:52:22;9.32;;;5.97;;
60308;SDS011;50313;52.894;6.492;2022-08-19T08:54:52;8.80;;;4.68;;
60308;SDS011;50313;52.894;6.492;2022-08-19T08:57:27;8.82;;;4.60;;
60308;SDS011;50313;52.894;6.492;2022-08-19T09:00:04;11.02;;;5.32;;
60308;SDS011;50313;52.894;6.492;2022-08-19T09:02:32;13.30;;;5.68;;
60308;SDS011;50313;52.894;6.492;2022-08-19T09:04:58;8.82;;;4.80;;
60308;SDS011;50313;52.894;6.492;2022-08-19T09:09:54;7.93;;;4.70;;
60308;SDS011;50313;52.894;6.492;2022-08-19T09:12:52;9.13;;;5.05;;
60308;SDS011;50313;52.894;6.492;2022-08-19T09:15:33;5.43;;;3.58;;
60308;SDS011;50313;52.894;6.492;2022-08-19T09:18:04;8.77;;;5.77;;
60308;SDS011;50313;52.894;6.492;2022-08-19T09:20:30;11.40;;;6.22;;
60308;SDS011;50313;52.894;6.492;2022-08-19T09:22:56;7.78;;;4.13;;
60308;SDS011;50313;52.894;6.492;2022-08-19T09:25:23;10.90;;;5.65;;
60308;SDS011;50313;52.894;6.492;2022-08-19T09:27:49;6.43;;;3.83;;
60308;SDS011;50313;52.894;6.492;2022-08-19T09:30:26;14.35;;;4.60;;
60308;SDS011;50313;52.894;6.492;2022-08-19T09:32:53;9.27;;;4.53;;
60308;SDS011;50313;52.894;6.492;2022-08-19T09:35:21;6.00;;;3.80;;
60308;SDS011;50313;52.894;6.492;2022-08-19T09:37:48;10.32;;;4.60;;
60308;SDS011;50313;52.894;6.492;2022-08-19T09:40:14;7.13;;;4.05;;
60308;SDS011;50313;52.894;6.492;2022-08-19T09:42:41;7.68;;;4.22;;
60308;SDS011;50313;52.894;6.492;2022-08-19T09:45:08;8.23;;;5.25;;
60308;SDS011;50313;52.894;6.492;2022-08-19T09:47:35;7.78;;;4.80;;
60308;SDS011;50313;52.894;6.492;2022-08-19T09:50:04;9.30;;;4.95;;
60308;SDS011;50313;52.894;6.492;2022-08-19T09:52:32;10.15;;;4.90;;
60308;SDS011;50313;52.894;6.492;2022-08-19T09:54:58;7.45;;;3.90;;
60308;SDS011;50313;52.894;6.492;2022-08-19T09:57:24;7.53;;;4.90;;
60308;SDS011;50313;52.894;6.492;2022-08-19T09:59:49;13.90;;;4.80;;
60308;SDS011;50313;52.894;6.492;2022-08-19T10:02:15;10.10;;;4.35;;
60308;SDS011;50313;52.894;6.492;2022-08-19T10:04:41;10.88;;;4.68;;
60308;SDS011;50313;52.894;6.492;2022-08-19T10:07:30;9.40;;;4.32;;
60308;SDS011;50313;52.894;6.492;2022-08-19T10:09:55;6.82;;;3.95;;
60308;SDS011;50313;52.894;6.492;2022-08-19T10:12:21;6.13;;;3.58;;
60308;SDS011;50313;52.894;6.492;2022-08-19T10:14:47;6.28;;;3.63;;
60308;SDS011;50313;52.894;6.492;2022-08-19T10:17:13;7.07;;;4.10;;
60308;SDS011;50313;52.894;6.492;2022-08-19T10:19:40;9.75;;;4.32;;
60308;SDS011;50313;52.894;6.492;2022-08-19T10:22:06;6.57;;;4.35;;
60308;SDS011;50313;52.894;6.492;2022-08-19T10:24:32;9.43;;;4.78;;
60308;SDS011;50313;52.894;6.492;2022-08-19T10:26:59;9.75;;;5.13;;
60308;SDS011;50313;52.894;6.492;2022-08-19T10:29:28;5.35;;;3.38;;
60308;SDS011;50313;52.894;6.492;2022-08-19T10:31:55;8.07;;;4.22;;
60308;SDS011;50313;52.894;6.492;2022-08-19T10:34:22;8.88;;;4.35;;
60308;SDS011;50313;52.894;6.492;2022-08-19T10:36:48;6.90;;;3.83;;
60308;SDS011;50313;52.894;6.492;2022-08-19T10:39:14;6.57;;;3.55;;
60308;SDS011;50313;52.894;6.492;2022-08-19T10:41:40;5.63;;;3.00;;
60308;SDS011;50313;52.894;6.492;2022-08-19T10:44:09;6.07;;;3.28;;
60308;SDS011;50313;52.894;6.492;2022-08-19T10:46:39;6.75;;;4.20;;
60308;SDS011;50313;52.894;6.492;2022-08-19T10:49:07;10.13;;;4.55;;
60308;SDS011;50313;52.894;6.492;2022-08-19T10:51:34;12.65;;;5.20;;
60308;SDS011;50313;52.894;6.492;2022-08-19T10:54:19;9.73;;;4.20;;
60308;SDS011;50313;52.894;6.492;2022-08-19T10:56:45;10.52;;;5.25;;
60308;SDS011;50313;52.894;6.492;2022-08-19T10:59:19;6.82;;;3.97;;
60308;SDS011;50313;52.894;6.492;2022-08-19T11:01:50;8.23;;;4.40;;
60308;SDS011;50313;52.894;6.492;2022-08-19T11:04:17;6.90;;;3.65;;
60308;SDS011;50313;52.894;6.492;2022-08-19T11:06:45;6.53;;;4.05;;
60308;SDS011;50313;52.894;6.492;2022-08-19T11:09:13;8.80;;;3.83;;
60308;SDS011;50313;52.894;6.492;2022-08-19T11:11:40;7.93;;;4.35;;
60308;SDS011;50313;52.894;6.492;2022-08-19T11:14:10;13.35;;;4.65;;
60308;SDS011;50313;52.894;6.492;2022-08-19T11:16:39;8.57;;;4.07;;
60308;SDS011;50313;52.894;6.492;2022-08-19T11:19:07;8.20;;;5.28;;
60308;SDS011;50313;52.894;6.492;2022-08-19T11:21:35;7.93;;;5.43;;
60308;SDS011;50313;52.894;6.492;2022-08-19T11:24:05;9.35;;;5.22;;
60308;SDS011;50313;52.894;6.492;2022-08-19T11:26:33;9.38;;;5.93;;
60308;SDS011;50313;52.894;6.492;2022-08-19T11:29:00;8.15;;;5.05;;
60308;SDS011;50313;52.894;6.492;2022-08-19T11:31:29;10.10;;;4.80;;
60308;SDS011;50313;52.894;6.492;2022-08-19T11:34:00;10.75;;;5.68;;
60308;SDS011;50313;52.894;6.492;2022-08-19T11:36:29;8.52;;;4.90;;
60308;SDS011;50313;52.894;6.492;2022-08-19T11:38:56;8.02;;;4.30;;
60308;SDS011;50313;52.894;6.492;2022-08-19T11:41:22;6.22;;;4.20;;
60308;SDS011;50313;52.894;6.492;2022-08-19T11:43:49;9.23;;;4.03;;
60308;SDS011;50313;52.894;6.492;2022-08-19T11:46:18;5.80;;;3.83;;
60308;SDS011;50313;52.894;6.492;2022-08-19T11:48:45;4.63;;;2.78;;
60308;SDS011;50313;52.894;6.492;2022-08-19T11:51:14;5.95;;;2.70;;
60308;SDS011;50313;52.894;6.492;2022-08-19T11:53:45;5.15;;;2.75;;
60308;SDS011;50313;52.894;6.492;2022-08-19T11:56:11;5.53;;;3.33;;
60308;SDS011;50313;52.894;6.492;2022-08-19T11:58:37;8.32;;;2.67;;
60308;SDS011;50313;52.894;6.492;2022-08-19T12:01:07;5.78;;;2.95;;
60308;SDS011;50313;52.894;6.492;2022-08-19T12:03:34;7.72;;;3.65;;
60308;SDS011;50313;52.894;6.492;2022-08-19T12:06:05;7.07;;;2.92;;
60308;SDS011;50313;52.894;6.492;2022-08-19T12:08:31;5.30;;;2.70;;
60308;SDS011;50313;52.894;6.492;2022-08-19T12:10:57;7.60;;;4.03;;
60308;SDS011;50313;52.894;6.492;2022-08-19T12:13:25;4.40;;;2.75;;
60308;SDS011;50313;52.894;6.492;2022-08-19T12:15:50;2.53;;;1.73;;
60308;SDS011;50313;52.894;6.492;2022-08-19T12:18:18;2.92;;;2.13;;
60308;SDS011;50313;52.894;6.492;2022-08-19T12:20:43;2.60;;;2.10;;
60308;SDS011;50313;52.894;6.492;2022-08-19T12:23:11;4.40;;;2.15;;
60308;SDS011;50313;52.894;6.492;2022-08-19T12:25:37;3.65;;;2.20;;
60308;SDS011;50313;52.894;6.492;2022-08-19T12:28:19;4.07;;;2.13;;
60308;SDS011;50313;52.894;6.492;2022-08-19T12:30:46;5.82;;;3.28;;
60308;SDS011;50313;52.894;6.492;2022-08-19T12:33:13;6.25;;;2.45;;
60308;SDS011;50313;52.894;6.492;2022-08-19T12:35:43;6.85;;;2.90;;
60308;SDS011;50313;52.894;6.492;2022-08-19T12:38:10;6.35;;;3.75;;
60308;SDS011;50313;52.894;6.492;2022-08-19T12:40:37;7.00;;;3.63;;
60308;SDS011;50313;52.894;6.492;2022-08-19T12:43:05;5.30;;;3.17;;
60308;SDS011;50313;52.894;6.492;2022-08-19T12:45:31;7.40;;;3.45;;
60308;SDS011;50313;52.894;6.492;2022-08-19T12:47:58;6.72;;;3.30;;
60308;SDS011;50313;52.894;6.492;2022-08-19T12:50:24;5.78;;;3.83;;
60308;SDS011;50313;52.894;6.492;2022-08-19T12:52:50;9.85;;;4.18;;
60308;SDS011;50313;52.894;6.492;2022-08-19T12:55:15;7.60;;;3.30;;
60308;SDS011;50313;52.894;6.492;2022-08-19T12:57:43;3.10;;;2.80;;
60308;SDS011;50313;52.894;6.492;2022-08-19T13:00:11;5.65;;;3.10;;
60308;SDS011;50313;52.894;6.492;2022-08-19T13:02:39;4.35;;;3.00;;
60308;SDS011;50313;52.894;6.492;2022-08-19T13:05:07;5.82;;;3.45;;
60308;SDS011;50313;52.894;6.492;2022-08-19T13:07:36;5.15;;;3.22;;
60308;SDS011;50313;52.894;6.492;2022-08-19T13:10:04;11.15;;;4.22;;
60308;SDS011;50313;52.894;6.492;2022-08-19T13:12:31;6.68;;;3.85;;
60308;SDS011;50313;52.894;6.492;2022-08-19T13:14:57;4.88;;;2.65;;
60308;SDS011;50313;52.894;6.492;2022-08-19T13:17:22;7.20;;;3.47;;
60308;SDS011;50313;52.894;6.492;2022-08-19T13:19:48;9.55;;;2.60;;
60308;SDS011;50313;52.894;6.492;2022-08-19T13:22:15;5.97;;;3.13;;
60308;SDS011;50313;52.894;6.492;2022-08-19T13:24:41;6.38;;;4.13;;
60308;SDS011;50313;52.894;6.492;2022-08-19T13:27:07;9.32;;;4.43;;
60308;SDS011;50313;52.894;6.492;2022-08-19T13:29:33;7.60;;;4.70;;
60308;SDS011;50313;52.894;6.492;2022-08-19T13:32:17;13.07;;;5.15;;
60308;SDS011;50313;52.894;6.492;2022-08-19T13:35:02;6.32;;;4.00;;
60308;SDS011;50313;52.894;6.492;2022-08-19T13:37:28;6.05;;;3.72;;
60308;SDS011;50313;52.894;6.492;2022-08-19T13:40:16;10.30;;;5.38;;
60308;SDS011;50313;52.894;6.492;2022-08-19T13:42:44;11.50;;;5.50;;
60308;SDS011;50313;52.894;6.492;2022-08-19T13:45:12;8.80;;;4.32;;
60308;SDS011;50313;52.894;6.492;2022-08-19T13:47:40;9.15;;;4.43;;
60308;SDS011;50313;52.894;6.492;2022-08-19T13:50:13;7.55;;;4.80;;
60308;SDS011;50313;52.894;6.492;2022-08-19T13:52:41;12.75;;;5.22;;
60308;SDS011;50313;52.894;6.492;2022-08-19T13:55:08;11.25;;;5.40;;
60308;SDS011;50313;52.894;6.492;2022-08-19T13:57:35;7.10;;;4.90;;
60308;SDS011;50313;52.894;6.492;2022-08-19T14:00:04;9.93;;;6.18;;
60308;SDS011;50313;52.894;6.492;2022-08-19T14:02:39;14.25;;;6.95;;
60308;SDS011;50313;52.894;6.492;2022-08-19T14:05:08;12.55;;;6.15;;
60308;SDS011;50313;52.894;6.492;2022-08-19T14:07:36;12.38;;;6.18;;
60308;SDS011;50313;52.894;6.492;2022-08-19T14:10:03;6.90;;;4.60;;
60308;SDS011;50313;52.894;6.492;2022-08-19T14:12:31;10.13;;;5.65;;
60308;SDS011;50313;52.894;6.492;2022-08-19T14:14:57;12.40;;;6.57;;
60308;SDS011;50313;52.894;6.492;2022-08-19T14:17:24;13.98;;;6.85;;
60308;SDS011;50313;52.894;6.492;2022-08-19T14:19:50;11.48;;;6.63;;
60308;SDS011;50313;52.894;6.492;2022-08-19T14:22:27;16.42;;;7.05;;
60308;SDS011;50313;52.894;6.492;2022-08-19T14:24:53;14.52;;;6.53;;
60308;SDS011;50313;52.894;6.492;2022-08-19T14:27:19;11.60;;;6.25;;
60308;SDS011;50313;52.894;6.492;2022-08-19T14:29:44;12.18;;;6.28;;
60308;SDS011;50313;52.894;6.492;2022-08-19T14:32:10;12.15;;;6.25;;
60308;SDS011;50313;52.894;6.492;2022-08-19T14:34:37;9.82;;;6.30;;
60308;SDS011;50313;52.894;6.492;2022-08-19T14:37:03;21.30;;;6.72;;
60308;SDS011;50313;52.894;6.492;2022-08-19T14:39:29;10.63;;;6.57;;
60308;SDS011;50313;52.894;6.492;2022-08-19T14:41:54;11.32;;;6.47;;
60308;SDS011;50313;52.894;6.492;2022-08-19T14:44:21;21.88;;;8.23;;
60308;SDS011;50313;52.894;6.492;2022-08-19T14:46:47;13.57;;;6.82;;
60308;SDS011;50313;52.894;6.492;2022-08-19T14:49:13;13.40;;;7.10;;
60308;SDS011;50313;52.894;6.492;2022-08-19T14:51:40;12.98;;;6.53;;
60308;SDS011;50313;52.894;6.492;2022-08-19T14:54:06;11.30;;;5.35;;
60308;SDS011;50313;52.894;6.492;2022-08-19T14:56:32;11.35;;;5.03;;
60308;SDS011;50313;52.894;6.492;2022-08-19T14:58:58;10.32;;;5.88;;